sensor_id;sensor_type;location;lat;lon;timestamp;temperature;humidity
67354;SHT30;54238;52.278;21.056;2023-06-14T00:01:37;14.49;78.60
67354;SHT30;54238;52.278;21.056;2023-06-14T00:04:12;14.51;78.60
67354;SHT30;54238;52.278;21.056;2023-06-14T00:06:40;14.51;78.53
67354;SHT30;54238;52.278;21.056;2023-06-14T00:09:17;14.54;78.46
67354;SHT30;54238;52.278;21.056;2023-06-14T00:11:46;14.51;78.28
67354;SHT30;54238;52.278;21.056;2023-06-14T00:14:14;14.49;78.41
67354;SHT30;54238;52.278;21.056;2023-06-14T00:16:46;14.50;78.41
67354;SHT30;54238;52.278;21.056;2023-06-14T00:19:15;14.49;78.44
67354;SHT30;54238;52.278;21.056;2023-06-14T00:21:48;14.48;78.46
67354;SHT30;54238;52.278;21.056;2023-06-14T00:24:18;14.49;78.55
67354;SHT30;54238;52.278;21.056;2023-06-14T00:26:49;14.52;78.45
67354;SHT30;54238;52.278;21.056;2023-06-14T00:29:24;14.51;78.42
67354;SHT30;54238;52.278;21.056;2023-06-14T00:31:56;14.51;78.34
67354;SHT30;54238;52.278;21.056;2023-06-14T00:34:24;14.50;78.32
67354;SHT30;54238;52.278;21.056;2023-06-14T00:36:54;14.47;78.37
67354;SHT30;54238;52.278;21.056;2023-06-14T00:39:26;14.44;78.44
67354;SHT30;54238;52.278;21.056;2023-06-14T00:41:55;14.43;78.55
67354;SHT30;54238;52.278;21.056;2023-06-14T00:44:28;14.44;78.68
67354;SHT30;54238;52.278;21.056;2023-06-14T00:46:59;14.46;78.77
67354;SHT30;54238;52.278;21.056;2023-06-14T00:49:29;14.45;78.63
67354;SHT30;54238;52.278;21.056;2023-06-14T00:52:02;14.44;78.71
67354;SHT30;54238;52.278;21.056;2023-06-14T00:54:39;14.47;78.71
67354;SHT30;54238;52.278;21.056;2023-06-14T00:57:14;14.48;78.80
67354;SHT30;54238;52.278;21.056;2023-06-14T00:59:43;14.51;78.93
67354;SHT30;54238;52.278;21.056;2023-06-14T01:02:17;14.56;78.96
67354;SHT30;54238;52.278;21.056;2023-06-14T01:04:47;14.56;78.72
67354;SHT30;54238;52.278;21.056;2023-06-14T01:13:43;14.55;78.90
67354;SHT30;54238;52.278;21.056;2023-06-14T01:16:17;14.57;78.90
67354;SHT30;54238;52.278;21.056;2023-06-14T01:18:54;14.57;78.75
67354;SHT30;54238;52.278;21.056;2023-06-14T01:21:25;14.55;78.71
67354;SHT30;54238;52.278;21.056;2023-06-14T01:23:55;14.55;78.85
67354;SHT30;54238;52.278;21.056;2023-06-14T01:26:32;14.52;78.88
67354;SHT30;54238;52.278;21.056;2023-06-14T01:29:06;14.50;79.00
67354;SHT30;54238;52.278;21.056;2023-06-14T01:31:43;14.54;79.11
67354;SHT30;54238;52.278;21.056;2023-06-14T01:34:11;14.57;79.10
67354;SHT30;54238;52.278;21.056;2023-06-14T01:36:42;14.59;79.20
67354;SHT30;54238;52.278;21.056;2023-06-14T01:39:16;14.65;79.10
67354;SHT30;54238;52.278;21.056;2023-06-14T01:41:47;14.66;78.96
67354;SHT30;54238;52.278;21.056;2023-06-14T01:44:17;14.66;78.98
67354;SHT30;54238;52.278;21.056;2023-06-14T01:46:49;14.65;78.91
67354;SHT30;54238;52.278;21.056;2023-06-14T01:49:20;14.66;78.90
67354;SHT30;54238;52.278;21.056;2023-06-14T01:51:49;14.66;78.81
67354;SHT30;54238;52.278;21.056;2023-06-14T01:54:19;14.69;78.87
67354;SHT30;54238;52.278;21.056;2023-06-14T01:56:46;14.72;78.76
67354;SHT30;54238;52.278;21.056;2023-06-14T01:59:15;14.77;78.72
67354;SHT30;54238;52.278;21.056;2023-06-14T02:01:45;14.80;78.52
67354;SHT30;54238;52.278;21.056;2023-06-14T02:04:12;14.80;78.40
67354;SHT30;54238;52.278;21.056;2023-06-14T02:06:42;14.80;78.39
67354;SHT30;54238;52.278;21.056;2023-06-14T02:09:09;14.76;78.33
67354;SHT30;54238;52.278;21.056;2023-06-14T02:11:39;14.73;78.35
67354;SHT30;54238;52.278;21.056;2023-06-14T02:14:11;14.73;78.49
67354;SHT30;54238;52.278;21.056;2023-06-14T02:16:40;14.73;78.53
67354;SHT30;54238;52.278;21.056;2023-06-14T02:19:17;14.76;78.68
67354;SHT30;54238;52.278;21.056;2023-06-14T02:21:48;14.81;78.73
67354;SHT30;54238;52.278;21.056;2023-06-14T02:24:20;14.81;78.65
67354;SHT30;54238;52.278;21.056;2023-06-14T02:26:57;14.82;78.62
67354;SHT30;54238;52.278;21.056;2023-06-14T02:29:29;14.78;78.60
67354;SHT30;54238;52.278;21.056;2023-06-14T02:31:59;14.76;78.72
67354;SHT30;54238;52.278;21.056;2023-06-14T02:34:27;14.74;78.71
67354;SHT30;54238;52.278;21.056;2023-06-14T02:36:57;14.76;78.69
67354;SHT30;54238;52.278;21.056;2023-06-14T02:39:29;14.78;78.60
67354;SHT30;54238;52.278;21.056;2023-06-14T02:42:01;14.78;78.70
67354;SHT30;54238;52.278;21.056;2023-06-14T02:44:30;14.76;78.76
67354;SHT30;54238;52.278;21.056;2023-06-14T02:46:59;14.74;78.80
67354;SHT30;54238;52.278;21.056;2023-06-14T02:49:28;14.73;78.79
67354;SHT30;54238;52.278;21.056;2023-06-14T02:52:00;14.73;78.73
67354;SHT30;54238;52.278;21.056;2023-06-14T02:54:32;14.72;78.88
67354;SHT30;54238;52.278;21.056;2023-06-14T02:57:09;14.71;79.05
67354;SHT30;54238;52.278;21.056;2023-06-14T02:59:37;14.71;78.96
67354;SHT30;54238;52.278;21.056;2023-06-14T03:02:06;14.71;78.92
67354;SHT30;54238;52.278;21.056;2023-06-14T03:04:38;14.74;78.91
67354;SHT30;54238;52.278;21.056;2023-06-14T03:07:06;14.79;78.88
67354;SHT30;54238;52.278;21.056;2023-06-14T03:09:38;14.81;78.72
67354;SHT30;54238;52.278;21.056;2023-06-14T03:12:09;14.80;78.67
67354;SHT30;54238;52.278;21.056;2023-06-14T03:14:36;14.79;78.63
67354;SHT30;54238;52.278;21.056;2023-06-14T03:17:04;14.81;78.68
67354;SHT30;54238;52.278;21.056;2023-06-14T03:19:32;14.81;78.69
67354;SHT30;54238;52.278;21.056;2023-06-14T03:22:03;14.84;78.78
67354;SHT30;54238;52.278;21.056;2023-06-14T03:24:34;14.87;78.88
67354;SHT30;54238;52.278;21.056;2023-06-14T03:27:04;14.88;78.66
67354;SHT30;54238;52.278;21.056;2023-06-14T03:29:33;14.87;78.66
67354;SHT30;54238;52.278;21.056;2023-06-14T03:32:06;14.87;78.59
67354;SHT30;54238;52.278;21.056;2023-06-14T03:34:36;14.84;78.60
67354;SHT30;54238;52.278;21.056;2023-06-14T03:37:08;14.82;78.59
67354;SHT30;54238;52.278;21.056;2023-06-14T03:39:40;14.84;78.63
67354;SHT30;54238;52.278;21.056;2023-06-14T03:42:13;14.87;78.79
67354;SHT30;54238;52.278;21.056;2023-06-14T03:44:43;14.92;78.66
67354;SHT30;54238;52.278;21.056;2023-06-14T03:47:15;14.93;78.50
67354;SHT30;54238;52.278;21.056;2023-06-14T03:49:47;14.92;78.57
67354;SHT30;54238;52.278;21.056;2023-06-14T03:52:19;14.91;78.57
67354;SHT30;54238;52.278;21.056;2023-06-14T03:54:48;14.94;78.59
67354;SHT30;54238;52.278;21.056;2023-06-14T03:57:15;14.95;78.60
67354;SHT30;54238;52.278;21.056;2023-06-14T03:59:43;15.00;78.72
67354;SHT30;54238;52.278;21.056;2023-06-14T04:02:12;15.00;78.61
67354;SHT30;54238;52.278;21.056;2023-06-14T04:04:45;15.01;78.67
67354;SHT30;54238;52.278;21.056;2023-06-14T04:07:18;15.04;78.79
67354;SHT30;54238;52.278;21.056;2023-06-14T04:09:49;15.12;78.61
67354;SHT30;54238;52.278;21.056;2023-06-14T04:12:16;15.18;78.39
67354;SHT30;54238;52.278;21.056;2023-06-14T04:14:50;15.22;78.41
67354;SHT30;54238;52.278;21.056;2023-06-14T04:17:18;15.22;78.38
67354;SHT30;54238;52.278;21.056;2023-06-14T04:19:50;15.23;78.18
67354;SHT30;54238;52.278;21.056;2023-06-14T04:22:17;15.24;77.97
67354;SHT30;54238;52.278;21.056;2023-06-14T04:24:49;15.23;77.96
67354;SHT30;54238;52.278;21.056;2023-06-14T04:27:17;15.25;78.06
67354;SHT30;54238;52.278;21.056;2023-06-14T04:29:48;15.27;78.18
67354;SHT30;54238;52.278;21.056;2023-06-14T04:32:16;15.29;78.14
67354;SHT30;54238;52.278;21.056;2023-06-14T04:34:45;15.31;77.99
67354;SHT30;54238;52.278;21.056;2023-06-14T04:37:14;15.33;77.98
67354;SHT30;54238;52.278;21.056;2023-06-14T04:39:44;15.34;77.67
67354;SHT30;54238;52.278;21.056;2023-06-14T04:42:14;15.36;77.66
67354;SHT30;54238;52.278;21.056;2023-06-14T04:44:43;15.38;77.55
67354;SHT30;54238;52.278;21.056;2023-06-14T04:47:18;15.41;77.57
67354;SHT30;54238;52.278;21.056;2023-06-14T04:49:48;15.43;77.49
67354;SHT30;54238;52.278;21.056;2023-06-14T04:52:22;15.46;77.38
67354;SHT30;54238;52.278;21.056;2023-06-14T04:54:56;15.49;77.25
67354;SHT30;54238;52.278;21.056;2023-06-14T04:57:25;15.53;77.02
67354;SHT30;54238;52.278;21.056;2023-06-14T04:59:55;15.55;76.95
67354;SHT30;54238;52.278;21.056;2023-06-14T05:02:31;15.55;77.00
67354;SHT30;54238;52.278;21.056;2023-06-14T05:05:02;15.57;77.16
67354;SHT30;54238;52.278;21.056;2023-06-14T05:07:36;15.58;77.21
67354;SHT30;54238;52.278;21.056;2023-06-14T05:10:05;15.58;77.02
67354;SHT30;54238;52.278;21.056;2023-06-14T05:12:35;15.59;76.95
67354;SHT30;54238;52.278;21.056;2023-06-14T05:15:08;15.59;76.83
67354;SHT30;54238;52.278;21.056;2023-06-14T05:17:38;15.56;76.92
67354;SHT30;54238;52.278;21.056;2023-06-14T05:20:08;15.57;77.02
67354;SHT30;54238;52.278;21.056;2023-06-14T05:22:39;15.59;77.19
67354;SHT30;54238;52.278;21.056;2023-06-14T05:25:06;15.63;77.34
67354;SHT30;54238;52.278;21.056;2023-06-14T05:27:36;15.69;77.32
67354;SHT30;54238;52.278;21.056;2023-06-14T05:30:04;15.73;77.26
67354;SHT30;54238;52.278;21.056;2023-06-14T05:32:32;15.75;76.93
67354;SHT30;54238;52.278;21.056;2023-06-14T05:34:59;15.76;76.72
67354;SHT30;54238;52.278;21.056;2023-06-14T05:37:27;15.78;76.92
67354;SHT30;54238;52.278;21.056;2023-06-14T05:39:54;15.80;76.96
67354;SHT30;54238;52.278;21.056;2023-06-14T05:42:29;15.83;77.21
67354;SHT30;54238;52.278;21.056;2023-06-14T05:45:02;15.95;77.77
67354;SHT30;54238;52.278;21.056;2023-06-14T05:47:32;16.04;77.39
67354;SHT30;54238;52.278;21.056;2023-06-14T05:50:04;16.02;77.18
67354;SHT30;54238;52.278;21.056;2023-06-14T05:52:32;16.08;77.13
67354;SHT30;54238;52.278;21.056;2023-06-14T05:55:04;16.21;77.18
67354;SHT30;54238;52.278;21.056;2023-06-14T05:57:34;16.30;76.81
67354;SHT30;54238;52.278;21.056;2023-06-14T06:00:05;16.38;76.43
67354;SHT30;54238;52.278;21.056;2023-06-14T06:02:44;16.44;76.22
67354;SHT30;54238;52.278;21.056;2023-06-14T06:05:16;16.45;75.93
67354;SHT30;54238;52.278;21.056;2023-06-14T06:07:46;16.47;76.06
67354;SHT30;54238;52.278;21.056;2023-06-14T06:10:13;16.52;76.04
67354;SHT30;54238;52.278;21.056;2023-06-14T06:12:43;16.59;75.79
67354;SHT30;54238;52.278;21.056;2023-06-14T06:15:10;16.65;75.75
67354;SHT30;54238;52.278;21.056;2023-06-14T06:17:41;16.68;75.77
67354;SHT30;54238;52.278;21.056;2023-06-14T06:20:13;16.76;75.74
67354;SHT30;54238;52.278;21.056;2023-06-14T06:22:40;16.81;75.88
67354;SHT30;54238;52.278;21.056;2023-06-14T06:25:07;16.89;75.57
67354;SHT30;54238;52.278;21.056;2023-06-14T06:27:37;16.94;75.55
67354;SHT30;54238;52.278;21.056;2023-06-14T06:30:09;17.03;75.33
67354;SHT30;54238;52.278;21.056;2023-06-14T06:32:39;17.13;75.28
67354;SHT30;54238;52.278;21.056;2023-06-14T06:35:07;17.20;75.08
67354;SHT30;54238;52.278;21.056;2023-06-14T06:37:35;17.22;74.93
67354;SHT30;54238;52.278;21.056;2023-06-14T06:40:02;17.24;75.01
67354;SHT30;54238;52.278;21.056;2023-06-14T06:42:35;17.27;74.98
67354;SHT30;54238;52.278;21.056;2023-06-14T06:45:10;17.37;74.85
67354;SHT30;54238;52.278;21.056;2023-06-14T06:47:40;17.42;74.71
67354;SHT30;54238;52.278;21.056;2023-06-14T06:50:08;17.47;74.55
67354;SHT30;54238;52.278;21.056;2023-06-14T06:52:35;17.48;74.43
67354;SHT30;54238;52.278;21.056;2023-06-14T06:55:05;17.48;74.43
67354;SHT30;54238;52.278;21.056;2023-06-14T06:57:33;17.52;74.50
67354;SHT30;54238;52.278;21.056;2023-06-14T07:00:00;17.57;74.27
67354;SHT30;54238;52.278;21.056;2023-06-14T07:02:33;17.58;73.86
67354;SHT30;54238;52.278;21.056;2023-06-14T07:05:01;17.56;73.99
67354;SHT30;54238;52.278;21.056;2023-06-14T07:07:31;17.53;74.20
67354;SHT30;54238;52.278;21.056;2023-06-14T07:10:03;17.55;74.37
67354;SHT30;54238;52.278;21.056;2023-06-14T07:12:34;17.56;74.52
67354;SHT30;54238;52.278;21.056;2023-06-14T07:15:08;17.59;74.54
67354;SHT30;54238;52.278;21.056;2023-06-14T07:17:36;17.64;74.64
67354;SHT30;54238;52.278;21.056;2023-06-14T07:20:05;17.73;74.46
67354;SHT30;54238;52.278;21.056;2023-06-14T07:22:41;17.87;74.40
67354;SHT30;54238;52.278;21.056;2023-06-14T07:25:17;17.99;74.43
67354;SHT30;54238;52.278;21.056;2023-06-14T07:27:47;18.12;74.38
67354;SHT30;54238;52.278;21.056;2023-06-14T07:30:16;18.24;73.81
67354;SHT30;54238;52.278;21.056;2023-06-14T07:32:46;18.34;73.55
67354;SHT30;54238;52.278;21.056;2023-06-14T07:35:16;18.40;73.25
67354;SHT30;54238;52.278;21.056;2023-06-14T07:37:44;18.48;73.15
67354;SHT30;54238;52.278;21.056;2023-06-14T07:40:12;18.56;73.36
67354;SHT30;54238;52.278;21.056;2023-06-14T07:42:44;18.65;72.78
67354;SHT30;54238;52.278;21.056;2023-06-14T07:45:15;18.74;72.37
67354;SHT30;54238;52.278;21.056;2023-06-14T07:47:43;18.85;71.99
67354;SHT30;54238;52.278;21.056;2023-06-14T07:50:13;18.96;71.78
67354;SHT30;54238;52.278;21.056;2023-06-14T07:52:45;19.07;71.30
67354;SHT30;54238;52.278;21.056;2023-06-14T07:55:15;19.18;71.09
67354;SHT30;54238;52.278;21.056;2023-06-14T07:57:44;19.29;70.81
67354;SHT30;54238;52.278;21.056;2023-06-14T08:00:11;19.38;70.57
67354;SHT30;54238;52.278;21.056;2023-06-14T08:02:42;19.45;70.23
67354;SHT30;54238;52.278;21.056;2023-06-14T08:05:13;19.49;69.93
67354;SHT30;54238;52.278;21.056;2023-06-14T08:07:43;19.56;69.77
67354;SHT30;54238;52.278;21.056;2023-06-14T08:10:12;19.63;69.51
67354;SHT30;54238;52.278;21.056;2023-06-14T08:12:45;19.67;69.19
67354;SHT30;54238;52.278;21.056;2023-06-14T08:15:17;19.69;68.79
67354;SHT30;54238;52.278;21.056;2023-06-14T08:17:47;19.74;68.60
67354;SHT30;54238;52.278;21.056;2023-06-14T08:20:20;19.85;68.54
67354;SHT30;54238;52.278;21.056;2023-06-14T08:22:52;19.91;68.61
67354;SHT30;54238;52.278;21.056;2023-06-14T08:25:25;19.95;68.11
67354;SHT30;54238;52.278;21.056;2023-06-14T08:27:54;20.00;67.47
67354;SHT30;54238;52.278;21.056;2023-06-14T08:30:27;20.02;67.64
67354;SHT30;54238;52.278;21.056;2023-06-14T08:32:54;20.06;67.54
67354;SHT30;54238;52.278;21.056;2023-06-14T08:35:24;20.08;66.41
67354;SHT30;54238;52.278;21.056;2023-06-14T08:37:52;20.10;66.01
67354;SHT30;54238;52.278;21.056;2023-06-14T08:40:23;20.08;65.50
67354;SHT30;54238;52.278;21.056;2023-06-14T08:42:51;20.10;65.06
67354;SHT30;54238;52.278;21.056;2023-06-14T08:45:21;20.12;65.74
67354;SHT30;54238;52.278;21.056;2023-06-14T08:47:49;20.10;65.76
67354;SHT30;54238;52.278;21.056;2023-06-14T08:50:25;20.16;66.13
67354;SHT30;54238;52.278;21.056;2023-06-14T08:53:01;20.27;65.71
67354;SHT30;54238;52.278;21.056;2023-06-14T08:55:29;20.39;64.73
67354;SHT30;54238;52.278;21.056;2023-06-14T08:57:58;20.50;64.81
67354;SHT30;54238;52.278;21.056;2023-06-14T09:00:28;20.59;64.86
67354;SHT30;54238;52.278;21.056;2023-06-14T09:03:02;20.72;64.24
67354;SHT30;54238;52.278;21.056;2023-06-14T09:05:32;20.85;64.10
67354;SHT30;54238;52.278;21.056;2023-06-14T09:07:59;21.05;63.64
67354;SHT30;54238;52.278;21.056;2023-06-14T09:10:29;21.26;62.74
67354;SHT30;54238;52.278;21.056;2023-06-14T09:13:06;21.46;62.37
67354;SHT30;54238;52.278;21.056;2023-06-14T09:15:35;21.72;61.76
67354;SHT30;54238;52.278;21.056;2023-06-14T09:18:05;21.89;61.48
67354;SHT30;54238;52.278;21.056;2023-06-14T09:20:37;22.03;61.41
67354;SHT30;54238;52.278;21.056;2023-06-14T09:23:04;22.15;60.56
67354;SHT30;54238;52.278;21.056;2023-06-14T09:25:46;22.20;59.00
67354;SHT30;54238;52.278;21.056;2023-06-14T09:28:13;22.15;57.91
67354;SHT30;54238;52.278;21.056;2023-06-14T09:30:40;22.06;56.77
67354;SHT30;54238;52.278;21.056;2023-06-14T09:33:08;21.95;56.86
67354;SHT30;54238;52.278;21.056;2023-06-14T09:35:35;21.84;57.14
67354;SHT30;54238;52.278;21.056;2023-06-14T09:38:05;21.72;57.67
67354;SHT30;54238;52.278;21.056;2023-06-14T09:40:39;21.60;57.64
67354;SHT30;54238;52.278;21.056;2023-06-14T09:43:08;21.49;57.83
67354;SHT30;54238;52.278;21.056;2023-06-14T09:45:43;21.41;57.74
67354;SHT30;54238;52.278;21.056;2023-06-14T09:48:15;21.41;58.00
67354;SHT30;54238;52.278;21.056;2023-06-14T09:50:45;21.47;57.60
67354;SHT30;54238;52.278;21.056;2023-06-14T09:53:17;21.53;57.99
67354;SHT30;54238;52.278;21.056;2023-06-14T09:55:53;21.71;57.11
67354;SHT30;54238;52.278;21.056;2023-06-14T09:58:23;22.13;56.33
67354;SHT30;54238;52.278;21.056;2023-06-14T10:00:54;22.46;55.85
67354;SHT30;54238;52.278;21.056;2023-06-14T10:03:27;22.75;55.06
67354;SHT30;54238;52.278;21.056;2023-06-14T10:05:58;22.99;54.54
67354;SHT30;54238;52.278;21.056;2023-06-14T10:08:38;23.24;53.68
67354;SHT30;54238;52.278;21.056;2023-06-14T10:11:07;23.31;52.62
67354;SHT30;54238;52.278;21.056;2023-06-14T10:13:43;23.38;52.19
67354;SHT30;54238;52.278;21.056;2023-06-14T10:16:17;23.42;51.46
67354;SHT30;54238;52.278;21.056;2023-06-14T10:21:57;23.53;49.83
67354;SHT30;54238;52.278;21.056;2023-06-14T10:24:39;23.74;49.43
67354;SHT30;54238;52.278;21.056;2023-06-14T10:27:14;23.84;48.81
67354;SHT30;54238;52.278;21.056;2023-06-14T10:32:20;23.81;47.34
67354;SHT30;54238;52.278;21.056;2023-06-14T10:34:58;23.79;47.62
67354;SHT30;54238;52.278;21.056;2023-06-14T10:37:35;23.78;47.84
67354;SHT30;54238;52.278;21.056;2023-06-14T10:40:05;23.77;47.29
67354;SHT30;54238;52.278;21.056;2023-06-14T10:42:37;23.75;48.30
67354;SHT30;54238;52.278;21.056;2023-06-14T10:45:07;23.74;47.88
67354;SHT30;54238;52.278;21.056;2023-06-14T10:47:45;23.70;47.71
67354;SHT30;54238;52.278;21.056;2023-06-14T10:50:29;23.56;47.21
67354;SHT30;54238;52.278;21.056;2023-06-14T10:52:56;23.43;48.06
67354;SHT30;54238;52.278;21.056;2023-06-14T10:55:24;23.37;48.39
67354;SHT30;54238;52.278;21.056;2023-06-14T10:58:01;23.38;48.59
67354;SHT30;54238;52.278;21.056;2023-06-14T11:00:30;23.35;48.47
67354;SHT30;54238;52.278;21.056;2023-06-14T11:06:14;23.41;48.99
67354;SHT30;54238;52.278;21.056;2023-06-14T11:11:50;23.24;47.76
67354;SHT30;54238;52.278;21.056;2023-06-14T11:14:20;23.10;48.48
67354;SHT30;54238;52.278;21.056;2023-06-14T11:16:52;23.19;49.02
67354;SHT30;54238;52.278;21.056;2023-06-14T11:19:19;23.52;48.64
67354;SHT30;54238;52.278;21.056;2023-06-14T11:21:48;23.73;47.37
67354;SHT30;54238;52.278;21.056;2023-06-14T11:24:20;23.87;46.03
67354;SHT30;54238;52.278;21.056;2023-06-14T11:26:52;23.96;45.55
67354;SHT30;54238;52.278;21.056;2023-06-14T11:29:19;23.95;44.54
67354;SHT30;54238;52.278;21.056;2023-06-14T11:31:47;24.08;45.02
67354;SHT30;54238;52.278;21.056;2023-06-14T11:34:16;24.39;44.77
67354;SHT30;54238;52.278;21.056;2023-06-14T11:36:44;24.80;44.96
67354;SHT30;54238;52.278;21.056;2023-06-14T11:39:17;25.12;43.73
67354;SHT30;54238;52.278;21.056;2023-06-14T11:41:51;25.45;43.39
67354;SHT30;54238;52.278;21.056;2023-06-14T11:44:18;25.86;42.66
67354;SHT30;54238;52.278;21.056;2023-06-14T11:46:46;26.25;42.32
67354;SHT30;54238;52.278;21.056;2023-06-14T11:49:13;26.75;41.83
67354;SHT30;54238;52.278;21.056;2023-06-14T11:51:42;27.20;41.18
67354;SHT30;54238;52.278;21.056;2023-06-14T11:54:12;27.36;39.76
67354;SHT30;54238;52.278;21.056;2023-06-14T11:56:42;27.59;38.96
67354;SHT30;54238;52.278;21.056;2023-06-14T11:59:12;27.80;37.47
67354;SHT30;54238;52.278;21.056;2023-06-14T12:01:42;28.06;36.94
67354;SHT30;54238;52.278;21.056;2023-06-14T12:04:22;28.18;36.59
67354;SHT30;54238;52.278;21.056;2023-06-14T12:06:53;28.05;35.24
67354;SHT30;54238;52.278;21.056;2023-06-14T12:09:22;27.60;35.38
67354;SHT30;54238;52.278;21.056;2023-06-14T12:12:01;27.18;35.93
67354;SHT30;54238;52.278;21.056;2023-06-14T12:14:33;26.89;36.90
67354;SHT30;54238;52.278;21.056;2023-06-14T12:17:05;26.87;37.81
67354;SHT30;54238;52.278;21.056;2023-06-14T12:19:41;27.10;37.81
67354;SHT30;54238;52.278;21.056;2023-06-14T12:22:12;27.34;37.61
67354;SHT30;54238;52.278;21.056;2023-06-14T12:24:46;27.60;37.62
67354;SHT30;54238;52.278;21.056;2023-06-14T12:27:13;27.87;37.40
67354;SHT30;54238;52.278;21.056;2023-06-14T12:29:42;28.15;37.03
67354;SHT30;54238;52.278;21.056;2023-06-14T12:32:12;28.36;36.73
67354;SHT30;54238;52.278;21.056;2023-06-14T12:34:39;28.48;37.04
67354;SHT30;54238;52.278;21.056;2023-06-14T12:37:09;28.54;37.16
67354;SHT30;54238;52.278;21.056;2023-06-14T12:39:37;28.95;36.93
67354;SHT30;54238;52.278;21.056;2023-06-14T12:42:06;29.05;34.86
67354;SHT30;54238;52.278;21.056;2023-06-14T12:44:36;28.83;35.01
67354;SHT30;54238;52.278;21.056;2023-06-14T12:47:07;29.00;34.43
67354;SHT30;54238;52.278;21.056;2023-06-14T12:49:34;28.82;34.14
67354;SHT30;54238;52.278;21.056;2023-06-14T12:52:02;28.55;34.07
67354;SHT30;54238;52.278;21.056;2023-06-14T12:54:31;28.08;33.76
67354;SHT30;54238;52.278;21.056;2023-06-14T12:56:59;27.92;34.52
67354;SHT30;54238;52.278;21.056;2023-06-14T12:59:28;27.93;34.34
67354;SHT30;54238;52.278;21.056;2023-06-14T13:02:10;28.26;34.30
67354;SHT30;54238;52.278;21.056;2023-06-14T13:04:50;28.58;33.81
67354;SHT30;54238;52.278;21.056;2023-06-14T13:07:20;28.79;33.62
67354;SHT30;54238;52.278;21.056;2023-06-14T13:09:49;29.12;33.18
67354;SHT30;54238;52.278;21.056;2023-06-14T13:12:19;29.35;31.62
67354;SHT30;54238;52.278;21.056;2023-06-14T13:14:51;29.23;31.43
67354;SHT30;54238;52.278;21.056;2023-06-14T13:17:18;29.25;32.33
67354;SHT30;54238;52.278;21.056;2023-06-14T13:19:46;29.58;32.56
67354;SHT30;54238;52.278;21.056;2023-06-14T13:22:13;29.77;32.19
67354;SHT30;54238;52.278;21.056;2023-06-14T13:24:42;29.93;32.48
67354;SHT30;54238;52.278;21.056;2023-06-14T13:27:09;29.77;32.52
67354;SHT30;54238;52.278;21.056;2023-06-14T13:29:41;29.34;33.39
67354;SHT30;54238;52.278;21.056;2023-06-14T13:32:08;28.78;33.50
67354;SHT30;54238;52.278;21.056;2023-06-14T13:34:35;28.24;33.82
67354;SHT30;54238;52.278;21.056;2023-06-14T13:37:07;27.95;33.84
67354;SHT30;54238;52.278;21.056;2023-06-14T13:39:37;27.78;34.47
67354;SHT30;54238;52.278;21.056;2023-06-14T13:42:11;27.42;34.70
67354;SHT30;54238;52.278;21.056;2023-06-14T13:44:43;27.23;35.21
67354;SHT30;54238;52.278;21.056;2023-06-14T13:47:14;27.00;35.79
67354;SHT30;54238;52.278;21.056;2023-06-14T13:49:46;26.82;36.25
67354;SHT30;54238;52.278;21.056;2023-06-14T13:52:15;26.67;36.79
67354;SHT30;54238;52.278;21.056;2023-06-14T13:54:42;26.66;37.32
67354;SHT30;54238;52.278;21.056;2023-06-14T13:57:10;26.67;37.14
67354;SHT30;54238;52.278;21.056;2023-06-14T13:59:39;26.54;37.37
67354;SHT30;54238;52.278;21.056;2023-06-14T14:02:10;26.31;37.31
67354;SHT30;54238;52.278;21.056;2023-06-14T14:04:44;26.23;37.39
67354;SHT30;54238;52.278;21.056;2023-06-14T14:07:19;26.31;37.70
67354;SHT30;54238;52.278;21.056;2023-06-14T14:09:47;26.49;37.77
67354;SHT30;54238;52.278;21.056;2023-06-14T14:12:19;26.69;37.32
67354;SHT30;54238;52.278;21.056;2023-06-14T14:14:51;26.87;37.03
67354;SHT30;54238;52.278;21.056;2023-06-14T14:17:19;26.71;37.17
67354;SHT30;54238;52.278;21.056;2023-06-14T14:19:49;26.48;37.61
67354;SHT30;54238;52.278;21.056;2023-06-14T14:22:21;26.41;37.78
67354;SHT30;54238;52.278;21.056;2023-06-14T14:24:51;26.31;37.98
67354;SHT30;54238;52.278;21.056;2023-06-14T14:27:20;26.11;37.90
67354;SHT30;54238;52.278;21.056;2023-06-14T14:29:50;25.89;37.84
67354;SHT30;54238;52.278;21.056;2023-06-14T14:32:17;25.73;37.94
67354;SHT30;54238;52.278;21.056;2023-06-14T14:34:44;25.58;38.45
67354;SHT30;54238;52.278;21.056;2023-06-14T14:37:11;25.45;39.39
67354;SHT30;54238;52.278;21.056;2023-06-14T14:39:41;25.40;39.67
67354;SHT30;54238;52.278;21.056;2023-06-14T14:42:11;25.27;39.72
67354;SHT30;54238;52.278;21.056;2023-06-14T14:44:47;25.07;40.12
67354;SHT30;54238;52.278;21.056;2023-06-14T14:47:17;24.89;40.96
67354;SHT30;54238;52.278;21.056;2023-06-14T14:49:47;24.74;41.34
67354;SHT30;54238;52.278;21.056;2023-06-14T14:52:17;24.67;42.05
67354;SHT30;54238;52.278;21.056;2023-06-14T14:54:47;24.63;42.46
67354;SHT30;54238;52.278;21.056;2023-06-14T14:57:14;24.53;41.92
67354;SHT30;54238;52.278;21.056;2023-06-14T14:59:43;24.31;41.59
67354;SHT30;54238;52.278;21.056;2023-06-14T15:02:10;24.23;41.67
67354;SHT30;54238;52.278;21.056;2023-06-14T15:04:40;24.27;41.36
67354;SHT30;54238;52.278;21.056;2023-06-14T15:07:07;24.20;41.07
67354;SHT30;54238;52.278;21.056;2023-06-14T15:09:34;24.01;41.61
67354;SHT30;54238;52.278;21.056;2023-06-14T15:12:04;23.88;41.91
67354;SHT30;54238;52.278;21.056;2023-06-14T15:14:34;23.75;41.91
67354;SHT30;54238;52.278;21.056;2023-06-14T15:17:01;23.82;42.19
67354;SHT30;54238;52.278;21.056;2023-06-14T15:19:31;24.17;41.96
67354;SHT30;54238;52.278;21.056;2023-06-14T15:21:59;24.64;40.99
67354;SHT30;54238;52.278;21.056;2023-06-14T15:24:29;25.10;40.16
67354;SHT30;54238;52.278;21.056;2023-06-14T15:27:02;25.47;39.41
67354;SHT30;54238;52.278;21.056;2023-06-14T15:29:31;25.76;39.21
67354;SHT30;54238;52.278;21.056;2023-06-14T15:32:01;26.11;39.16
67354;SHT30;54238;52.278;21.056;2023-06-14T15:34:28;26.58;38.58
67354;SHT30;54238;52.278;21.056;2023-06-14T15:37:00;26.98;37.89
67354;SHT30;54238;52.278;21.056;2023-06-14T15:39:29;27.23;37.73
67354;SHT30;54238;52.278;21.056;2023-06-14T15:42:07;27.51;37.33
67354;SHT30;54238;52.278;21.056;2023-06-14T15:44:37;27.81;36.74
67354;SHT30;54238;52.278;21.056;2023-06-14T15:47:06;27.83;36.57
67354;SHT30;54238;52.278;21.056;2023-06-14T15:49:34;27.48;37.07
67354;SHT30;54238;52.278;21.056;2023-06-14T15:52:07;26.96;37.37
67354;SHT30;54238;52.278;21.056;2023-06-14T15:54:34;26.46;37.08